Time;durP1;ratioP1;P1;durP2;ratioP2;P2;SDS_P1;SDS_P2;PMS_P1;PMS_P2;Temp;Humidity;BMP_temperature;BMP_pressure;BME280_temperature;BME280_humidity;BME280_pressure;Samples;Min_cycle;Max_cycle;Signal;HPM_P1;HPM_P2
2023/12/08 00:00:51;;;;;;;18.02;11.80;;;2.00;1.00;;;;;;7376206;19;20071;-69
2023/12/08 00:03:21;;;;;;;15.65;10.32;;;2.00;1.00;;;;;;7376227;19;20015;-69
2023/12/08 00:05:51;;;;;;;15.68;11.43;;;2.00;1.00;;;;;;7381099;19;20014;-69
2023/12/08 00:08:21;;;;;;;18.73;10.65;;;1.90;1.00;;;;;;7382379;19;20074;-69
2023/12/08 00:10:54;;;;;;;15.82;10.57;;;2.00;1.00;;;;;;7380417;19;20511;-68
2023/12/08 00:13:24;;;;;;;16.83;10.90;;;2.00;1.00;;;;;;7381590;19;20015;-69
2023/12/08 00:15:54;;;;;;;17.75;12.00;;;2.00;1.00;;;;;;7380101;19;20018;-69
2023/12/08 00:18:24;;;;;;;14.82;10.45;;;1.90;1.00;;;;;;7379751;19;20010;-69
2023/12/08 00:20:55;;;;;;;15.82;11.23;;;1.90;1.00;;;;;;7380611;19;20011;-69
2023/12/08 00:23:25;;;;;;;14.27;10.98;;;1.90;1.00;;;;;;7380325;19;20011;-69
2023/12/08 00:25:58;;;;;;;14.32;10.93;;;1.90;1.00;;;;;;7376531;19;20467;-69
2023/12/08 00:28:29;;;;;;;16.08;11.55;;;1.90;1.00;;;;;;7380404;19;20011;-69
2023/12/08 00:30:59;;;;;;;28.15;18.45;;;1.90;1.00;;;;;;7380017;19;20011;-69
2023/12/08 00:33:29;;;;;;;14.48;10.70;;;1.90;1.00;;;;;;7379879;19;20014;-69
2023/12/08 00:35:59;;;;;;;14.68;11.50;;;2.00;1.00;;;;;;7380351;19;20466;-67
2023/12/08 00:38:29;;;;;;;16.33;12.30;;;1.90;1.00;;;;;;7380314;19;20554;-67
2023/12/08 00:41:02;;;;;;;16.08;11.95;;;1.90;1.00;;;;;;7380469;19;20006;-69
2023/12/08 00:43:32;;;;;;;16.02;11.50;;;1.90;1.00;;;;;;7379474;19;20019;-68
2023/12/08 00:46:02;;;;;;;18.88;11.50;;;1.90;1.00;;;;;;7379505;19;20014;-68
2023/12/08 00:48:32;;;;;;;15.88;10.48;;;1.90;1.00;;;;;;7378744;19;20002;-68
2023/12/08 00:51:02;;;;;;;14.23;11.38;;;1.90;1.00;;;;;;7380306;19;20481;-68
2023/12/08 00:53:32;;;;;;;16.00;11.32;;;2.00;1.00;;;;;;7379312;19;20613;-68
2023/12/08 00:56:05;;;;;;;15.18;11.32;;;2.00;1.00;;;;;;7380079;19;20017;-68
2023/12/08 00:58:35;;;;;;;13.43;10.55;;;2.00;1.00;;;;;;7379532;19;20015;-68
2023/12/08 01:01:05;;;;;;;16.20;10.85;;;1.90;1.00;;;;;;7380848;19;20021;-68
2023/12/08 01:03:35;;;;;;;17.38;11.98;;;1.90;1.00;;;;;;7378756;19;20467;-68
2023/12/08 01:06:06;;;;;;;17.88;11.65;;;1.90;1.00;;;;;;7373997;19;20379;-68
2023/12/08 01:08:36;;;;;;;15.70;11.38;;;1.90;1.00;;;;;;7380155;19;20040;-68
2023/12/08 01:11:10;;;;;;;17.08;11.70;;;1.90;1.00;;;;;;7381023;19;20036;-68
2023/12/08 01:13:40;;;;;;;;;;;1.90;1.00;;;;;;7378555;19;20529;-68
2023/12/08 01:16:10;;;;;;;17.95;11.68;;;1.90;1.00;;;;;;7381945;19;19931;-68
2023/12/08 01:18:40;;;;;;;15.13;10.15;;;1.90;1.00;;;;;;7389688;19;20026;-67
2023/12/08 01:21:10;;;;;;;16.20;11.65;;;1.90;1.00;;;;;;7381928;19;20138;-67
2023/12/08 01:23:40;;;;;;;16.08;11.85;;;1.90;1.00;;;;;;7377778;19;20003;-67
2023/12/08 01:26:13;;;;;;;16.95;11.32;;;1.90;1.00;;;;;;7378054;19;20455;-67
2023/12/08 01:28:44;;;;;;;15.13;10.88;;;1.90;1.00;;;;;;7379085;19;20347;-67
2023/12/08 01:31:14;;;;;;;15.40;10.77;;;1.90;1.00;;;;;;7378363;19;20014;-67
2023/12/08 01:33:44;;;;;;;16.52;11.48;;;1.90;1.00;;;;;;7378889;19;20119;-67
2023/12/08 01:36:14;;;;;;;17.15;11.27;;;1.90;1.00;;;;;;7377146;19;20096;-68
2023/12/08 01:39:04;;;;;;;14.85;11.13;;;1.90;1.00;;;;;;6867127;19;2004069;-68
2023/12/08 01:41:37;;;;;;;14.80;11.05;;;1.90;1.00;;;;;;7378006;19;20013;-67
2023/12/08 01:44:07;;;;;;;22.73;11.10;;;1.90;1.00;;;;;;7377447;19;20463;-67
2023/12/08 01:46:38;;;;;;;15.20;11.30;;;1.90;1.00;;;;;;7377702;19;20006;-67
2023/12/08 01:49:08;;;;;;;16.33;12.07;;;1.90;1.00;;;;;;7378408;19;20003;-67
2023/12/08 01:51:39;;;;;;;15.68;11.73;;;1.90;1.00;;;;;;7378327;19;20010;-68
2023/12/08 01:54:09;;;;;;;16.50;11.55;;;1.90;1.00;;;;;;7376328;19;20018;-67
2023/12/08 01:56:42;;;;;;;18.27;11.77;;;1.90;1.00;;;;;;7377742;19;20018;-67
2023/12/08 01:59:13;;;;;;;15.93;11.80;;;1.90;1.00;;;;;;7378106;19;20020;-67
2023/12/08 02:01:43;;;;;;;14.98;11.35;;;1.90;1.00;;;;;;7377248;19;20162;-67
2023/12/08 02:04:13;;;;;;;15.90;11.13;;;1.90;1.00;;;;;;7377181;19;20296;-67
2023/12/08 02:06:43;;;;;;;15.00;11.57;;;1.90;1.00;;;;;;7376262;19;20100;-67
2023/12/08 02:09:18;;;;;;;16.95;11.43;;;1.80;1.00;;;;;;7378042;19;20743;-67
2023/12/08 02:11:51;;;;;;;14.60;11.02;;;1.90;1.00;;;;;;7377824;19;20082;-67
2023/12/08 02:14:21;;;;;;;14.63;10.95;;;1.80;1.00;;;;;;7379500;19;20010;-67
2023/12/08 02:16:56;;;;;;;15.85;11.43;;;1.80;1.00;;;;;;7379141;19;20515;-67
2023/12/08 02:19:27;;;;;;;18.67;11.75;;;1.90;1.00;;;;;;7377129;19;20447;-68
2023/12/08 02:21:57;;;;;;;14.13;10.45;;;1.90;1.00;;;;;;7377705;19;20106;-67
2023/12/08 02:24:30;;;;;;;17.17;11.70;;;1.90;1.00;;;;;;7376621;19;20486;-67
2023/12/08 02:27:00;;;;;;;15.80;11.70;;;1.90;1.00;;;;;;7374498;19;20013;-68
2023/12/08 02:29:30;;;;;;;15.65;11.27;;;1.90;1.00;;;;;;7377455;19;20461;-68
2023/12/08 02:32:04;;;;;;;16.92;11.55;;;1.90;1.00;;;;;;7376734;19;20002;-68
2023/12/08 02:34:35;;;;;;;16.27;11.32;;;1.90;1.00;;;;;;7375485;19;20011;-68
2023/12/08 02:37:09;;;;;;;20.55;12.25;;;2.00;1.00;;;;;;7376166;19;20010;-67
2023/12/08 02:39:41;;;;;;;15.70;11.43;;;1.90;1.00;;;;;;7377395;19;20015;-68
2023/12/08 02:42:12;;;;;;;14.25;10.30;;;1.90;1.00;;;;;;7376346;19;20014;-68
2023/12/08 02:44:42;;;;;;;15.90;12.38;;;1.90;1.00;;;;;;7375801;19;20022;-68
2023/12/08 02:47:13;;;;;;;14.98;11.85;;;1.90;1.00;;;;;;7375464;19;20014;-68
2023/12/08 02:49:42;;;;;;;16.33;11.52;;;2.00;1.00;;;;;;7376803;19;20022;-68
2023/12/08 02:52:12;;;;;;;17.55;12.27;;;2.00;1.00;;;;;;7377069;19;20011;-68
2023/12/08 02:54:45;;;;;;;15.27;10.85;;;2.00;1.00;;;;;;7376357;19;20016;-67
2023/12/08 02:57:15;;;;;;;17.60;11.80;;;1.90;1.00;;;;;;7376154;19;20035;-68
2023/12/08 02:59:45;;;;;;;15.77;11.68;;;1.90;1.00;;;;;;7377421;19;20011;-68
2023/12/08 03:02:15;;;;;;;14.25;11.27;;;2.00;1.00;;;;;;7376512;19;20014;-68
2023/12/08 03:04:45;;;;;;;14.85;11.40;;;1.90;1.00;;;;;;7375077;19;20017;-68
2023/12/08 03:07:15;;;;;;;14.30;10.98;;;2.00;1.00;;;;;;7373487;19;20014;-68
2023/12/08 03:09:48;;;;;;;16.25;11.63;;;2.00;1.00;;;;;;7376402;19;20014;-68
2023/12/08 03:12:18;;;;;;;15.32;11.38;;;2.00;1.00;;;;;;7376211;19;20019;-68
2023/12/08 03:14:48;;;;;;;19.42;11.88;;;2.00;1.00;;;;;;7375136;19;20128;-68
2023/12/08 03:17:18;;;;;;;17.48;12.50;;;2.00;1.00;;;;;;7375229;19;20085;-68
2023/12/08 03:19:48;;;;;;;15.93;11.82;;;2.00;1.00;;;;;;7376331;19;20047;-68
2023/12/08 03:22:18;;;;;;;20.10;11.95;;;2.10;1.00;;;;;;7375276;19;20412;-68
2023/12/08 03:24:51;;;;;;;16.25;11.70;;;2.10;1.00;;;;;;7375798;19;20017;-68
2023/12/08 03:27:21;;;;;;;15.55;11.60;;;2.10;1.00;;;;;;7375893;19;20006;-68
2023/12/08 03:29:51;;;;;;;16.42;11.50;;;2.00;1.00;;;;;;7376613;19;20244;-68
2023/12/08 03:32:21;;;;;;;15.60;11.35;;;2.10;1.00;;;;;;7375198;19;20014;-68
2023/12/08 03:34:51;;;;;;;15.35;11.45;;;2.10;1.00;;;;;;7373758;19;20014;-69
2023/12/08 03:37:21;;;;;;;15.07;11.60;;;2.00;1.00;;;;;;7373005;19;20013;-68
2023/12/08 03:39:53;;;;;;;15.75;11.23;;;2.00;1.00;;;;;;7377618;19;20025;-68
2023/12/08 03:42:23;;;;;;;15.95;11.88;;;2.10;1.00;;;;;;7386437;19;21060;-68
2023/12/08 03:44:53;;;;;;;14.60;10.50;;;2.10;1.00;;;;;;7378701;19;20037;-68
2023/12/08 03:47:23;;;;;;;15.20;11.63;;;2.10;1.00;;;;;;7374870;19;20026;-68
2023/12/08 03:49:54;;;;;;;15.43;10.95;;;2.10;1.00;;;;;;7373463;19;20375;-68
2023/12/08 03:52:23;;;;;;;16.75;11.45;;;2.10;1.00;;;;;;7374489;19;20030;-68
2023/12/08 03:54:56;;;;;;;18.10;11.32;;;2.10;1.00;;;;;;7373232;19;20494;-68
2023/12/08 03:57:26;;;;;;;15.30;11.50;;;2.10;1.00;;;;;;7372960;19;20355;-69
2023/12/08 03:59:57;;;;;;;16.40;11.43;;;2.00;1.00;;;;;;7373658;19;20035;-68
2023/12/08 04:02:27;;;;;;;16.23;11.20;;;2.10;1.00;;;;;;7371111;19;20003;-68
2023/12/08 04:04:57;;;;;;;14.95;10.73;;;2.10;1.00;;;;;;7374309;19;20010;-68
2023/12/08 04:07:27;;;;;;;14.45;10.75;;;2.10;1.00;;;;;;7371714;19;20470;-68
2023/12/08 04:09:59;;;;;;;15.05;10.88;;;2.10;1.00;;;;;;7373518;19;20115;-68
2023/12/08 04:12:30;;;;;;;18.42;11.02;;;2.20;1.00;;;;;;7374611;19;20009;-69
2023/12/08 04:15:00;;;;;;;16.10;11.70;;;2.20;1.00;;;;;;7372868;19;20011;-68
2023/12/08 04:17:30;;;;;;;16.77;11.40;;;2.20;1.00;;;;;;7371459;19;20010;-68
2023/12/08 04:20:00;;;;;;;14.57;11.07;;;2.10;1.00;;;;;;7375766;19;20014;-68
2023/12/08 04:22:31;;;;;;;15.70;11.05;;;2.10;1.00;;;;;;7374876;19;20017;-68
2023/12/08 04:25:04;;;;;;;16.30;11.68;;;2.10;1.00;;;;;;7373568;19;20010;-68
2023/12/08 04:27:34;;;;;;;15.93;11.35;;;2.10;1.00;;;;;;7374208;19;20024;-68
2023/12/08 04:30:04;;;;;;;17.75;11.75;;;2.10;1.00;;;;;;7374801;19;20014;-68
2023/12/08 04:32:34;;;;;;;19.25;11.18;;;2.10;1.00;;;;;;7372830;19;20014;-68
2023/12/08 04:35:05;;;;;;;16.20;11.68;;;2.20;1.00;;;;;;7374273;19;20478;-68
2023/12/08 04:37:35;;;;;;;17.42;11.23;;;2.10;1.00;;;;;;7372682;19;20046;-68
2023/12/08 04:40:09;;;;;;;14.52;10.65;;;2.20;1.00;;;;;;7376115;19;20018;-67
2023/12/08 04:42:42;;;;;;;17.17;11.48;;;2.20;1.00;;;;;;7372313;19;20011;-68
2023/12/08 04:45:14;;;;;;;16.83;11.35;;;2.30;1.00;;;;;;7372728;19;20010;-68
2023/12/08 04:47:44;;;;;;;15.68;11.23;;;2.20;1.00;;;;;;7371542;19;20426;-68
2023/12/08 04:50:14;;;;;;;13.75;10.57;;;2.30;1.00;;;;;;7377913;19;20027;-68
2023/12/08 04:52:44;;;;;;;15.88;10.60;;;2.30;1.00;;;;;;7379982;19;20053;-68
2023/12/08 04:55:17;;;;;;;14.27;11.05;;;2.30;1.00;;;;;;7379932;19;20010;-69
2023/12/08 04:57:47;;;;;;;16.73;11.43;;;2.30;1.00;;;;;;7379967;19;20123;-68
2023/12/08 05:00:18;;;;;;;17.15;11.85;;;2.20;1.00;;;;;;7379816;19;20010;-68
2023/12/08 05:02:50;;;;;;;15.50;11.30;;;2.20;1.00;;;;;;7381206;19;20020;-68
2023/12/08 05:05:20;;;;;;;15.93;11.25;;;2.10;1.00;;;;;;7380681;19;20023;-68
2023/12/08 05:07:50;;;;;;;16.58;11.90;;;2.10;1.00;;;;;;7379293;19;20015;-67
2023/12/08 05:10:22;;;;;;;15.57;11.50;;;2.10;1.00;;;;;;7379609;19;20609;-68
2023/12/08 05:12:52;;;;;;;15.27;11.40;;;2.10;1.00;;;;;;7378795;19;20007;-68
2023/12/08 05:15:23;;;;;;;16.27;11.43;;;2.10;1.00;;;;;;7380980;19;20013;-68
2023/12/08 05:17:53;;;;;;;17.73;10.88;;;2.20;1.00;;;;;;7379526;19;20462;-68
2023/12/08 05:20:23;;;;;;;14.85;11.27;;;2.20;1.00;;;;;;7381379;19;20098;-68
2023/12/08 05:22:53;;;;;;;15.73;12.02;;;2.20;1.00;;;;;;7380421;19;20011;-68
2023/12/08 05:25:26;;;;;;;18.15;11.48;;;2.20;1.00;;;;;;7380525;19;20014;-68
2023/12/08 05:27:56;;;;;;;16.40;11.23;;;2.20;1.00;;;;;;7378797;19;20467;-68
2023/12/08 05:30:27;;;;;;;16.33;11.65;;;2.30;1.00;;;;;;7380816;19;20014;-67
2023/12/08 05:32:57;;;;;;;16.45;12.05;;;2.20;1.00;;;;;;7378595;19;20459;-68
2023/12/08 05:35:27;;;;;;;16.88;11.75;;;2.20;1.00;;;;;;7379822;19;20599;-67
2023/12/08 05:37:57;;;;;;;15.55;11.65;;;2.20;1.00;;;;;;7379749;19;20011;-67
2023/12/08 05:40:30;;;;;;;18.40;12.32;;;2.30;1.00;;;;;;7378914;19;20518;-67
2023/12/08 05:43:00;;;;;;;15.85;11.43;;;2.20;1.00;;;;;;7380839;19;20009;-68
2023/12/08 05:45:30;;;;;;;15.90;11.27;;;2.10;1.00;;;;;;7380302;19;20526;-68
2023/12/08 05:48:00;;;;;;;16.15;11.95;;;2.10;1.00;;;;;;7379632;19;20006;-68
2023/12/08 05:50:33;;;;;;;19.08;11.50;;;2.10;1.00;;;;;;7378679;19;20685;-68
2023/12/08 05:53:05;;;;;;;18.33;11.95;;;2.10;1.00;;;;;;7381123;19;20074;-68
2023/12/08 05:55:37;;;;;;;17.38;12.52;;;2.10;1.00;;;;;;7380553;19;20006;-68
2023/12/08 05:58:08;;;;;;;15.93;11.52;;;2.20;1.00;;;;;;7379468;19;20389;-67
2023/12/08 06:00:38;;;;;;;17.88;11.85;;;2.20;1.00;;;;;;7379491;19;20079;-68
2023/12/08 06:03:08;;;;;;;16.55;11.93;;;2.20;1.00;;;;;;7380151;19;20026;-66
2023/12/08 06:05:38;;;;;;;17.45;12.60;;;2.30;1.00;;;;;;7384132;19;20353;-67
2023/12/08 06:08:08;;;;;;;21.98;13.18;;;2.40;1.00;;;;;;7383581;19;20010;-67
2023/12/08 06:10:42;;;;;;;23.05;13.45;;;2.40;1.00;;;;;;7379496;19;20089;-68
2023/12/08 06:13:13;;;;;;;16.27;12.73;;;2.40;1.00;;;;;;7376990;19;20027;-68
2023/12/08 06:15:43;;;;;;;19.40;12.93;;;2.40;1.00;;;;;;7378000;19;20077;-67
2023/12/08 06:18:13;;;;;;;21.33;14.85;;;2.40;1.00;;;;;;7378454;19;20014;-67
2023/12/08 06:20:44;;;;;;;21.25;13.73;;;2.40;1.00;;;;;;7378455;19;20007;-67
2023/12/08 06:23:14;;;;;;;24.58;14.75;;;2.40;1.00;;;;;;7378951;19;20047;-67
2023/12/08 06:25:46;;;;;;;22.88;15.60;;;2.40;1.00;;;;;;7377194;19;20670;-68
2023/12/08 06:28:16;;;;;;;20.58;14.85;;;2.40;1.00;;;;;;7379223;19;20010;-67
2023/12/08 06:30:46;;;;;;;24.75;15.95;;;2.30;1.00;;;;;;7377755;19;20063;-67
2023/12/08 06:33:17;;;;;;;27.80;16.30;;;2.30;1.00;;;;;;7378438;19;20010;-67
2023/12/08 06:35:47;;;;;;;30.50;16.20;;;2.30;1.50;;;;;;7377277;19;20006;-67
2023/12/08 06:38:17;;;;;;;22.02;16.00;;;2.30;5.90;;;;;;7377830;19;20006;-69
2023/12/08 06:40:50;;;;;;;24.52;16.13;;;2.20;10.50;;;;;;7378960;19;20592;-67
2023/12/08 06:43:20;;;;;;;24.40;16.92;;;2.20;16.50;;;;;;7379484;19;20074;-67
2023/12/08 06:45:51;;;;;;;29.55;17.55;;;2.30;19.30;;;;;;7377312;19;20122;-68
2023/12/08 06:48:23;;;;;;;47.00;28.42;;;2.20;19.10;;;;;;7378392;19;20009;-67
2023/12/08 06:50:53;;;;;;;36.30;23.50;;;2.20;19.40;;;;;;7373346;19;19999;-67
2023/12/08 06:53:23;;;;;;;29.75;21.10;;;2.30;20.20;;;;;;7377669;19;20011;-67
2023/12/08 06:55:56;;;;;;;33.55;20.30;;;2.30;23.20;;;;;;7376853;19;20014;-68
2023/12/08 06:58:26;;;;;;;27.77;17.48;;;2.30;25.70;;;;;;7378068;19;20373;-68
2023/12/08 07:00:56;;;;;;;26.15;16.85;;;2.20;24.00;;;;;;7377195;19;20002;-67
2023/12/08 07:03:26;;;;;;;28.85;18.95;;;2.20;25.00;;;;;;7375793;19;20126;-68
2023/12/08 07:05:56;;;;;;;30.75;19.25;;;2.20;29.70;;;;;;7376322;19;20081;-68
2023/12/08 07:08:26;;;;;;;27.88;20.25;;;2.30;31.10;;;;;;7376259;19;20505;-68
2023/12/08 07:10:59;;;;;;;27.27;18.20;;;2.20;34.10;;;;;;7378064;19;20015;-68
2023/12/08 07:13:29;;;;;;;28.05;19.42;;;2.20;41.40;;;;;;7374573;19;20101;-69
2023/12/08 07:15:59;;;;;;;29.92;19.63;;;2.20;48.10;;;;;;7376648;19;20006;-69
2023/12/08 07:18:29;;;;;;;32.30;18.48;;;2.20;46.40;;;;;;7377815;19;20079;-68
2023/12/08 07:21:01;;;;;;;27.67;18.70;;;2.10;45.70;;;;;;7375504;19;20471;-69
2023/12/08 07:23:31;;;;;;;32.03;18.63;;;2.20;51.50;;;;;;7370254;19;20014;-69
2023/12/08 07:26:04;;;;;;;27.35;18.65;;;2.20;59.20;;;;;;7374793;19;20002;-69
2023/12/08 07:28:34;;;;;;;30.07;18.37;;;2.20;57.80;;;;;;7377660;19;20539;-68
2023/12/08 07:31:05;;;;;;;27.30;18.45;;;2.20;67.00;;;;;;7374103;19;20405;-70
2023/12/08 07:33:35;;;;;;;26.40;18.00;;;2.20;74.60;;;;;;7377235;19;20027;-67
2023/12/08 07:36:06;;;;;;;27.45;18.15;;;2.20;77.40;;;;;;7372326;19;20035;-68
2023/12/08 07:38:36;;;;;;;27.88;19.13;;;2.20;83.40;;;;;;7378204;19;20010;-68
2023/12/08 07:41:09;;;;;;;25.25;17.27;;;2.30;92.00;;;;;;7377249;19;20381;-68
2023/12/08 07:43:39;;;;;;;36.63;18.80;;;2.30;92.00;;;;;;7377371;19;20006;-68
2023/12/08 07:46:10;;;;;;;28.90;18.70;;;2.40;98.40;;;;;;7377165;19;20006;-69
2023/12/08 07:48:40;;;;;;;30.60;18.67;;;2.40;97.90;;;;;;7376399;19;20010;-69
2023/12/08 07:51:10;;;;;;;23.35;17.15;;;2.40;99.90;;;;;;7377159;19;20014;-68
2023/12/08 07:53:40;;;;;;;25.17;18.10;;;2.40;99.90;;;;;;7375080;19;20360;-68
2023/12/08 07:56:14;;;;;;;26.25;18.70;;;2.50;99.90;;;;;;7376430;19;20002;-68
2023/12/08 07:58:44;;;;;;;26.95;19.23;;;2.50;99.90;;;;;;7374851;19;20021;-69
2023/12/08 08:01:14;;;;;;;28.42;19.13;;;2.50;99.90;;;;;;7373661;19;20082;-68
2023/12/08 08:03:44;;;;;;;28.98;18.45;;;2.50;99.90;;;;;;7374760;19;20010;-68
2023/12/08 08:06:14;;;;;;;27.25;17.80;;;2.50;99.90;;;;;;7375816;19;20006;-68
2023/12/08 08:08:44;;;;;;;25.38;19.17;;;2.60;99.90;;;;;;7372707;19;20633;-69
2023/12/08 08:11:17;;;;;;;26.95;19.40;;;2.60;99.90;;;;;;7371673;19;20012;-68
2023/12/08 08:13:47;;;;;;;28.15;18.92;;;2.60;99.90;;;;;;7371714;19;20014;-69
2023/12/08 08:16:17;;;;;;;26.25;19.38;;;2.70;99.90;;;;;;7374497;19;20055;-70
2023/12/08 08:18:47;;;;;;;28.38;19.55;;;2.70;99.90;;;;;;7374887;19;20456;-67
2023/12/08 08:21:17;;;;;;;26.50;18.70;;;2.70;99.90;;;;;;7371915;19;20011;-67
2023/12/08 08:23:47;;;;;;;27.48;18.67;;;2.80;99.90;;;;;;7374507;19;20461;-68
2023/12/08 08:26:20;;;;;;;28.67;19.67;;;2.90;99.90;;;;;;7379596;19;20035;-67
2023/12/08 08:28:50;;;;;;;27.42;18.60;;;3.00;99.90;;;;;;7381861;19;20018;-67
2023/12/08 08:31:21;;;;;;;27.52;19.63;;;3.00;99.90;;;;;;7382819;19;20022;-67
2023/12/08 08:33:51;;;;;;;25.95;18.70;;;3.10;99.90;;;;;;7382619;19;20010;-69
2023/12/08 08:36:22;;;;;;;26.38;18.92;;;3.10;99.90;;;;;;7380362;19;20014;-69
2023/12/08 08:38:51;;;;;;;28.73;19.15;;;3.10;99.90;;;;;;7381707;19;20406;-69
2023/12/08 08:41:24;;;;;;;32.92;20.83;;;3.20;99.90;;;;;;7381879;19;20021;-69
2023/12/08 08:43:54;;;;;;;26.42;18.00;;;3.30;99.90;;;;;;7381843;19;20010;-68
2023/12/08 08:46:24;;;;;;;28.55;18.15;;;3.30;99.90;;;;;;7379508;19;20002;-68
2023/12/08 08:48:55;;;;;;;28.20;18.77;;;3.30;99.90;;;;;;7379461;19;20014;-68
2023/12/08 08:51:25;;;;;;;23.88;17.50;;;3.30;99.90;;;;;;7380135;19;20086;-68
2023/12/08 08:53:56;;;;;;;28.02;18.35;;;3.40;99.90;;;;;;7379013;19;20014;-68
2023/12/08 08:56:28;;;;;;;28.45;16.88;;;3.30;99.90;;;;;;7379053;19;20514;-69
2023/12/08 08:58:59;;;;;;;25.25;17.95;;;3.40;99.90;;;;;;7380719;19;20014;-68
2023/12/08 09:01:29;;;;;;;24.63;17.73;;;3.40;99.90;;;;;;7379812;19;20494;-67
2023/12/08 09:03:59;;;;;;;24.10;17.05;;;3.50;99.90;;;;;;7378749;19;20708;-68
2023/12/08 09:06:29;;;;;;;25.88;17.45;;;3.50;99.90;;;;;;7377736;19;20011;-69
2023/12/08 09:09:00;;;;;;;27.60;17.48;;;3.60;99.90;;;;;;7381230;19;20554;-67
2023/12/08 09:11:32;;;;;;;28.58;18.40;;;3.60;99.90;;;;;;7379678;19;20768;-68
2023/12/08 09:14:02;;;;;;;27.42;17.77;;;3.70;99.90;;;;;;7381701;19;20697;-68
2023/12/08 09:16:32;;;;;;;27.65;17.50;;;3.70;99.90;;;;;;7380319;19;20133;-69
2023/12/08 09:19:03;;;;;;;28.65;17.80;;;3.70;99.90;;;;;;7379716;19;20011;-68
2023/12/08 09:21:34;;;;;;;26.27;17.80;;;3.80;99.90;;;;;;7379176;19;20011;-68
2023/12/08 09:24:17;;;;;;;25.50;17.88;;;3.80;99.90;;;;;;7379131;19;20572;-68
2023/12/08 09:26:50;;;;;;;24.48;16.85;;;3.90;99.90;;;;;;7380723;19;20575;-68
2023/12/08 09:29:20;;;;;;;26.58;17.90;;;3.90;99.90;;;;;;7381898;19;20009;-68
2023/12/08 09:31:51;;;;;;;26.30;18.83;;;3.90;99.90;;;;;;7379974;19;20014;-68
2023/12/08 09:34:21;;;;;;;28.40;18.23;;;3.90;99.90;;;;;;7378349;19;20010;-69
2023/12/08 09:36:51;;;;;;;23.50;17.05;;;3.90;99.90;;;;;;7374111;19;20014;-68
2023/12/08 09:39:41;;;;;;;27.73;18.10;;;3.90;99.90;;;;;;6867095;19;2004600;-68
2023/12/08 09:42:28;;;;;;;39.15;23.75;;;4.00;99.90;;;;;;7378522;19;20602;-68
2023/12/08 09:44:58;;;;;;;26.10;17.92;;;4.10;99.90;;;;;;7372707;19;20027;-67
2023/12/08 09:47:30;;;;;;;27.67;17.88;;;4.00;99.90;;;;;;7380628;19;20017;-67
2023/12/08 09:50:04;;;;;;;28.17;17.52;;;4.10;99.90;;;;;;7375828;19;20039;-68
2023/12/08 09:52:36;;;;;;;26.27;17.05;;;4.10;99.90;;;;;;7377983;19;20456;-68
2023/12/08 09:55:08;;;;;;;28.23;18.08;;;4.10;99.90;;;;;;7378131;19;20011;-69
2023/12/08 09:57:44;;;;;;;33.58;17.67;;;4.20;99.90;;;;;;7378810;19;20172;-68
2023/12/08 10:00:17;;;;;;;24.90;17.45;;;4.20;99.90;;;;;;7378555;19;20010;-68
2023/12/08 10:02:49;;;;;;;28.65;18.67;;;4.30;99.90;;;;;;7377140;19;20007;-69
2023/12/08 10:05:20;;;;;;;30.65;19.35;;;4.30;99.90;;;;;;7378929;19;20010;-68
2023/12/08 10:07:57;;;;;;;32.88;18.63;;;4.40;99.90;;;;;;7377366;19;20227;-69
2023/12/08 10:10:27;;;;;;;27.55;19.35;;;4.40;99.90;;;;;;7379552;19;20006;-68
2023/12/08 10:13:00;;;;;;;29.90;20.00;;;4.40;99.90;;;;;;7373396;19;20114;-69
2023/12/08 10:15:31;;;;;;;30.25;18.88;;;4.50;99.90;;;;;;7376597;19;20010;-69
2023/12/08 10:18:01;;;;;;;28.40;19.23;;;4.50;99.90;;;;;;7381237;19;20017;-69
2023/12/08 10:20:31;;;;;;;32.55;18.92;;;4.50;99.90;;;;;;7374525;19;20017;-69
2023/12/08 10:23:02;;;;;;;31.35;20.20;;;4.50;99.90;;;;;;7378006;19;20003;-68
2023/12/08 10:25:33;;;;;;;28.58;18.02;;;4.50;99.90;;;;;;7372592;19;20444;-69
2023/12/08 10:28:08;;;;;;;26.83;18.42;;;4.50;99.90;;;;;;7374704;19;20007;-68
2023/12/08 10:30:38;;;;;;;28.33;17.58;;;4.60;99.90;;;;;;7377845;19;20010;-69
2023/12/08 10:33:08;;;;;;;24.95;19.05;;;4.70;99.90;;;;;;7376947;19;20019;-68
2023/12/08 10:35:40;;;;;;;27.02;18.75;;;4.70;99.90;;;;;;7377427;19;20006;-68
2023/12/08 10:38:11;;;;;;;25.27;17.65;;;4.70;99.90;;;;;;7375940;19;20014;-68
2023/12/08 10:40:48;;;;;;;23.02;16.23;;;4.70;99.90;;;;;;7377427;19;20010;-68
2023/12/08 10:43:23;;;;;;;26.75;17.15;;;4.80;99.90;;;;;;7376959;19;20006;-68
2023/12/08 10:45:53;;;;;;;25.15;16.85;;;4.80;99.90;;;;;;7375117;19;20046;-68
2023/12/08 10:48:25;;;;;;;29.10;17.92;;;4.90;99.90;;;;;;7376372;19;20110;-68
2023/12/08 10:50:56;;;;;;;27.73;18.67;;;4.90;99.90;;;;;;7376019;19;20954;-69
2023/12/08 10:53:27;;;;;;;24.17;17.23;;;5.10;99.90;;;;;;7376964;19;20353;-69
2023/12/08 10:56:03;;;;;;;24.02;16.67;;;5.10;99.90;;;;;;7379781;19;20366;-69
2023/12/08 10:58:37;;;;;;;25.02;16.38;;;5.10;99.90;;;;;;7379375;19;20005;-68
2023/12/08 11:01:12;;;;;;;23.33;15.38;;;5.20;99.90;;;;;;7375699;19;20006;-70
2023/12/08 11:03:44;;;;;;;21.42;14.25;;;5.20;99.90;;;;;;7376676;19;20010;-68
2023/12/08 11:06:32;;;;;;;23.15;15.60;;;5.20;99.90;;;;;;7377306;19;20007;-68
2023/12/08 11:09:06;;;;;;;30.98;19.27;;;5.20;99.90;;;;;;7378917;19;20017;-69
2023/12/08 11:11:40;;;;;;;28.25;16.05;;;5.30;99.90;;;;;;7373244;19;20064;-67
2023/12/08 11:14:20;;;;;;;21.60;15.00;;;5.30;99.90;;;;;;7374739;19;20026;-70
2023/12/08 11:16:57;;;;;;;20.98;15.32;;;5.40;99.90;;;;;;7375967;19;20018;-68
2023/12/08 11:19:28;;;;;;;22.73;15.55;;;5.40;99.90;;;;;;7378183;19;20034;-68
2023/12/08 11:21:59;;;;;;;22.17;15.50;;;5.40;99.90;;;;;;7375255;19;20003;-68
2023/12/08 11:24:31;;;;;;;24.65;14.57;;;5.50;99.90;;;;;;7375975;19;20006;-68
2023/12/08 11:27:07;;;;;;;22.10;15.27;;;5.50;99.90;;;;;;7374252;19;20003;-69
2023/12/08 11:29:50;;;;;;;22.95;16.08;;;5.50;99.90;;;;;;7377681;19;20018;-68
2023/12/08 11:32:26;;;;;;;22.98;15.63;;;5.60;99.90;;;;;;6864959;19;2004499;-69
2023/12/08 11:35:00;;;;;;;24.08;15.13;;;5.60;99.90;;;;;;7376821;19;20011;-68
2023/12/08 11:37:31;;;;;;;;;;;5.70;99.90;;;;;;7374977;19;20017;-68
2023/12/08 11:40:07;;;;;;;22.20;14.75;;;5.70;99.90;;;;;;7377248;19;19922;-68
2023/12/08 11:42:37;;;;;;;19.00;13.48;;;5.80;99.90;;;;;;7375837;19;20015;-69
2023/12/08 11:45:12;;;;;;;22.83;15.05;;;5.80;99.90;;;;;;7376142;19;20014;-68
2023/12/08 11:47:44;;;;;;;21.20;14.05;;;5.90;99.90;;;;;;7376281;19;20653;-69
2023/12/08 11:50:15;;;;;;;20.05;13.70;;;5.90;99.90;;;;;;7374004;19;20010;-69
2023/12/08 11:52:45;;;;;;;21.08;13.80;;;6.00;99.90;;;;;;7377808;19;20105;-69
2023/12/08 11:55:20;;;;;;;18.40;13.70;;;6.00;99.90;;;;;;7378168;19;20017;-68
2023/12/08 11:58:09;;;;;;;23.42;13.57;;;6.10;99.90;;;;;;6867187;19;2003960;-68
2023/12/08 12:00:43;;;;;;;21.88;13.75;;;6.20;99.90;;;;;;7382442;19;20023;-68
2023/12/08 12:03:14;;;;;;;17.95;12.90;;;6.20;99.90;;;;;;7383105;19;20021;-68
2023/12/08 12:05:44;;;;;;;19.95;12.65;;;6.20;99.90;;;;;;7378901;19;20089;-68
2023/12/08 12:08:17;;;;;;;18.42;12.30;;;6.40;99.90;;;;;;7383669;19;20007;-68
2023/12/08 12:10:51;;;;;;;19.67;12.88;;;6.30;96.20;;;;;;7374686;19;20023;-68
2023/12/08 12:13:24;;;;;;;17.70;12.30;;;6.30;96.20;;;;;;7382117;19;20491;-69
2023/12/08 12:15:57;;;;;;;16.65;11.88;;;6.40;96.00;;;;;;7381770;19;20006;-69
2023/12/08 12:18:28;;;;;;;14.93;11.18;;;6.40;97.40;;;;;;7381510;19;20024;-69
2023/12/08 12:20:58;;;;;;;15.80;11.18;;;6.40;94.50;;;;;;7382557;19;20013;-69
2023/12/08 12:23:28;;;;;;;20.55;12.75;;;6.40;94.10;;;;;;7380518;19;20090;-69
2023/12/08 12:25:58;;;;;;;18.42;12.73;;;6.40;95.00;;;;;;7380823;19;20394;-69
2023/12/08 12:28:28;;;;;;;18.42;13.02;;;6.40;93.00;;;;;;7382169;19;20580;-69
2023/12/08 12:31:03;;;;;;;20.38;13.43;;;6.50;94.30;;;;;;7381138;19;20038;-68
2023/12/08 12:33:33;;;;;;;16.70;12.40;;;6.50;90.60;;;;;;7380084;19;20399;-69
2023/12/08 12:36:04;;;;;;;21.08;13.52;;;6.50;89.10;;;;;;7379895;19;20392;-69
2023/12/08 12:38:34;;;;;;;17.30;12.35;;;6.50;90.20;;;;;;7379066;19;20274;-69
2023/12/08 12:41:23;;;;;;;20.10;12.52;;;6.60;88.40;;;;;;7381070;19;20530;-68
2023/12/08 12:44:03;;;;;;;18.42;12.30;;;6.60;80.90;;;;;;7378040;19;20701;-69
2023/12/08 12:46:36;;;;;;;16.55;11.48;;;6.60;69.80;;;;;;7378060;19;20017;-68
2023/12/08 12:49:06;;;;;;;17.30;11.20;;;6.60;70.40;;;;;;7381865;19;20410;-67
2023/12/08 12:51:38;;;;;;;15.63;10.82;;;6.60;67.90;;;;;;7381432;19;20010;-68
2023/12/08 12:54:09;;;;;;;15.40;10.52;;;6.60;71.30;;;;;;7380337;19;20418;-67
2023/12/08 12:56:49;;;;;;;14.77;10.30;;;6.60;70.90;;;;;;7378388;19;20014;-67
2023/12/08 12:59:19;;;;;;;16.67;11.25;;;6.60;75.50;;;;;;7379010;19;20023;-68
2023/12/08 13:01:52;;;;;;;18.08;12.10;;;6.60;72.40;;;;;;7379153;19;20022;-67
2023/12/08 13:04:29;;;;;;;16.55;12.18;;;6.60;76.40;;;;;;7381771;19;20096;-69